createdAt,value
2022-10-29T00:00:54.061Z,68.37
2022-10-29T00:03:21.756Z,68.49
2022-10-29T00:05:49.478Z,68.23
2022-10-29T00:08:17.254Z,68.08
2022-10-29T00:10:44.972Z,68.05
2022-10-29T00:13:12.847Z,68.63
2022-10-29T00:15:40.481Z,68.25
2022-10-29T00:18:08.214Z,68.70
2022-10-29T00:20:36.060Z,68.38
2022-10-29T00:23:04.171Z,68.64
2022-10-29T00:25:32.121Z,68.50
2022-10-29T00:27:59.696Z,68.89
2022-10-29T00:30:27.281Z,68.88
2022-10-29T00:32:55.435Z,68.67
2022-10-29T00:35:23.346Z,68.93
2022-10-29T00:37:51.285Z,68.70
2022-10-29T00:40:19.002Z,68.75
2022-10-29T00:42:46.564Z,68.85
2022-10-29T00:45:15.891Z,68.81
2022-10-29T00:47:43.563Z,68.37
2022-10-29T00:50:11.513Z,68.85
2022-10-29T00:52:39.100Z,68.64
2022-10-29T00:55:06.795Z,68.38
2022-10-29T00:57:34.554Z,68.64
2022-10-29T01:00:02.177Z,68.21
2022-10-29T01:02:30.295Z,68.54
2022-10-29T01:04:58.240Z,68.31
2022-10-29T01:07:26.192Z,67.94
2022-10-29T01:09:53.802Z,68.19
2022-10-29T01:12:21.390Z,68.03
2022-10-29T01:14:49.359Z,68.52
2022-10-29T01:17:17.918Z,67.81
2022-10-29T01:19:45.698Z,68.10
2022-10-29T01:22:13.300Z,68.45
2022-10-29T01:24:40.875Z,68.05
2022-10-29T01:27:08.851Z,67.99
2022-10-29T01:29:36.443Z,68.69
2022-10-29T01:32:04.093Z,68.63
2022-10-29T01:34:31.838Z,68.65
2022-10-29T01:36:59.428Z,68.38
2022-10-29T01:39:27.421Z,68.47
2022-10-29T01:41:55.006Z,68.52
2022-10-29T01:44:22.582Z,68.07
2022-10-29T01:46:50.228Z,68.37
2022-10-29T01:49:17.822Z,68.87
2022-10-29T01:51:46.142Z,69.13
2022-10-29T01:54:13.771Z,69.17
2022-10-29T01:56:41.596Z,68.92
2022-10-29T01:59:18.057Z,68.94
2022-10-29T02:01:56.599Z,68.83
2022-10-29T02:04:24.246Z,68.91
2022-10-29T02:06:51.873Z,69.44
2022-10-29T02:09:19.637Z,69.39
2022-10-29T02:11:47.506Z,69.56
2022-10-29T02:14:15.468Z,69.95
2022-10-29T02:16:43.057Z,69.80
2022-10-29T02:19:10.644Z,70.45
2022-10-29T02:21:40.488Z,70.00
2022-10-29T02:24:08.075Z,69.91
2022-10-29T02:26:36.023Z,70.29
2022-10-29T02:29:03.622Z,69.90
2022-10-29T02:31:31.220Z,70.36
2022-10-29T02:34:00.201Z,70.50
2022-10-29T02:36:27.769Z,70.08
2022-10-29T02:38:55.712Z,70.21
2022-10-29T02:41:23.293Z,69.99
2022-10-29T02:43:50.873Z,70.13
2022-10-29T02:46:18.498Z,69.60
2022-10-29T02:48:46.080Z,69.45
2022-10-29T02:51:14.063Z,70.10
2022-10-29T02:53:41.677Z,70.29
2022-10-29T02:56:09.736Z,70.36
2022-10-29T02:58:37.487Z,70.65
2022-10-29T03:01:05.134Z,69.98
2022-10-29T03:03:33.141Z,70.94
2022-10-29T03:06:00.681Z,70.74
2022-10-29T03:08:28.261Z,71.03
2022-10-29T03:10:56.049Z,71.13
2022-10-29T03:13:23.679Z,70.61
2022-10-29T03:15:51.338Z,71.61
2022-10-29T03:18:19.295Z,71.56
2022-10-29T03:20:47.637Z,71.49
2022-10-29T03:23:15.543Z,71.01
2022-10-29T03:25:43.119Z,70.99
2022-10-29T03:28:11.130Z,71.17
2022-10-29T03:30:38.722Z,71.61
2022-10-29T03:33:06.318Z,71.81
2022-10-29T03:35:33.977Z,72.35
2022-10-29T03:38:01.651Z,72.22
2022-10-29T03:40:29.926Z,72.19
2022-10-29T03:42:57.872Z,71.64
2022-10-29T03:45:25.782Z,71.89
2022-10-29T03:47:53.824Z,71.82
2022-10-29T03:50:21.547Z,71.61
2022-10-29T03:52:49.469Z,72.22
2022-10-29T03:55:17.045Z,71.84
2022-10-29T03:57:44.658Z,72.27
2022-10-29T04:00:12.780Z,72.53
2022-10-29T04:02:40.990Z,72.60
2022-10-29T04:05:09.156Z,72.64
2022-10-29T04:07:36.802Z,72.38
2022-10-29T04:10:04.380Z,71.95
2022-10-29T04:12:32.134Z,71.80
2022-10-29T04:14:59.781Z,71.95
2022-10-29T04:17:27.772Z,72.20
2022-10-29T04:19:55.361Z,72.15
2022-10-29T04:30:46.237Z,71.87
2022-10-29T04:33:13.876Z,71.80
2022-10-29T04:35:41.685Z,72.06
2022-10-29T04:38:09.638Z,71.94
2022-10-29T04:40:37.244Z,72.10
2022-10-29T04:43:05.131Z,71.75
2022-10-29T04:45:32.783Z,72.52
2022-10-29T04:48:00.434Z,72.19
2022-10-29T04:50:28.100Z,71.95
2022-10-29T04:52:55.651Z,72.61
2022-10-29T04:55:23.246Z,72.06
2022-10-29T04:57:50.828Z,72.11
2022-10-29T05:00:18.913Z,72.37
2022-10-29T05:02:46.952Z,72.64
2022-10-29T05:05:14.917Z,72.14
2022-10-29T05:07:42.524Z,72.05
2022-10-29T05:10:10.145Z,72.22
2022-10-29T05:12:37.894Z,71.71
2022-10-29T05:15:05.837Z,72.28
2022-10-29T05:17:33.486Z,71.99
2022-10-29T05:20:01.080Z,72.25
2022-10-29T05:22:28.713Z,71.93
2022-10-29T05:24:56.400Z,71.85
2022-10-29T05:27:24.331Z,71.95
2022-10-29T05:29:51.906Z,71.68
2022-10-29T05:32:19.540Z,71.91
2022-10-29T05:34:47.260Z,71.91
2022-10-29T05:37:15.048Z,71.63
2022-10-29T05:39:43.012Z,71.67
2022-10-29T05:42:10.570Z,72.11
2022-10-29T05:44:38.168Z,71.96
2022-10-29T05:47:06.256Z,71.58
2022-10-29T05:49:34.147Z,72.35
2022-10-29T05:52:02.129Z,71.47
2022-10-29T05:54:31.244Z,72.25
2022-10-29T05:56:58.906Z,72.17
2022-10-29T05:59:31.079Z,72.28
2022-10-29T06:02:01.646Z,72.24
2022-10-29T06:04:29.340Z,72.24
2022-10-29T06:06:57.027Z,72.33
2022-10-29T06:09:25.049Z,71.90
2022-10-29T06:11:52.679Z,72.12
2022-10-29T06:14:20.404Z,72.50
2022-10-29T06:16:48.339Z,72.31
2022-10-29T06:19:15.926Z,72.70
2022-10-29T06:21:43.550Z,72.83
2022-10-29T06:24:12.375Z,72.11
2022-10-29T06:26:40.235Z,72.57
2022-10-29T06:29:08.208Z,72.31
2022-10-29T06:31:36.505Z,71.65
2022-10-29T06:34:04.137Z,71.75
2022-10-29T06:36:31.775Z,71.76
2022-10-29T06:38:59.431Z,71.92
2022-10-29T06:41:27.468Z,72.45
2022-10-29T06:43:55.090Z,72.14
2022-10-29T06:46:22.808Z,71.67
2022-10-29T06:48:50.478Z,72.10
2022-10-29T06:51:18.480Z,71.88
2022-10-29T06:53:46.584Z,72.12
2022-10-29T06:56:14.312Z,72.16
2022-10-29T06:58:41.987Z,71.83
2022-10-29T07:01:09.706Z,71.79
2022-10-29T07:03:37.437Z,72.45
2022-10-29T07:06:05.228Z,71.97
2022-10-29T07:08:33.488Z,71.92
2022-10-29T07:11:03.054Z,71.40
2022-10-29T07:13:30.784Z,71.25
2022-10-29T07:16:00.311Z,70.74
2022-10-29T07:18:28.111Z,71.33
2022-10-29T07:20:55.800Z,70.75
2022-10-29T07:23:23.558Z,70.63
2022-10-29T07:25:51.371Z,70.95
2022-10-29T07:28:20.949Z,70.90
2022-10-29T07:30:49.397Z,70.26
2022-10-29T07:33:17.054Z,70.49
2022-10-29T07:35:44.922Z,70.47
2022-10-29T07:38:13.282Z,70.36
2022-10-29T07:40:41.215Z,70.30
2022-10-29T07:43:09.348Z,70.06
2022-10-29T07:45:37.090Z,70.30
2022-10-29T07:48:04.770Z,69.88
2022-10-29T07:50:32.515Z,69.71
2022-10-29T07:53:00.376Z,69.71
2022-10-29T07:58:02.571Z,69.68
2022-10-29T08:00:30.342Z,68.97
2022-10-29T08:02:58.013Z,68.98
2022-10-29T08:05:26.231Z,68.66
2022-10-29T08:07:54.703Z,68.39
2022-10-29T08:10:22.752Z,68.65
2022-10-29T08:12:50.814Z,68.65
2022-10-29T08:15:18.569Z,68.32
2022-10-29T08:17:46.605Z,68.40
2022-10-29T08:20:14.377Z,67.74
2022-10-29T08:22:42.525Z,67.68
2022-10-29T08:25:10.324Z,67.03
2022-10-29T08:27:38.113Z,67.02
2022-10-29T08:30:06.071Z,66.97
2022-10-29T08:32:34.544Z,67.08
2022-10-29T08:35:02.291Z,66.91
2022-10-29T08:37:30.009Z,66.61
2022-10-29T08:39:57.847Z,66.84
2022-10-29T08:42:26.177Z,66.71
2022-10-29T08:44:54.844Z,66.34
2022-10-29T08:47:22.593Z,66.27
2022-10-29T08:49:50.467Z,66.62
2022-10-29T08:52:20.379Z,66.42
2022-10-29T08:54:48.175Z,66.08
2022-10-29T08:57:16.465Z,66.45
2022-10-29T08:59:44.185Z,66.50
2022-10-29T09:02:12.151Z,66.17
2022-10-29T09:04:40.246Z,65.68
2022-10-29T09:07:08.738Z,65.81
2022-10-29T09:09:36.906Z,65.80
2022-10-29T09:12:04.977Z,65.09
2022-10-29T09:14:32.719Z,64.50
2022-10-29T09:17:00.479Z,64.66
2022-10-29T09:19:28.488Z,64.57
2022-10-29T09:21:56.654Z,64.18
2022-10-29T09:24:24.569Z,64.87
2022-10-29T09:26:52.648Z,63.92
2022-10-29T09:29:20.463Z,63.59
2022-10-29T09:31:48.509Z,64.36
2022-10-29T09:34:18.399Z,63.46
2022-10-29T09:36:46.137Z,62.95
2022-10-29T09:39:14.016Z,62.76
2022-10-29T09:41:41.952Z,62.33
2022-10-29T09:44:09.717Z,62.10
2022-10-29T09:46:37.983Z,61.34
2022-10-29T09:51:34.833Z,59.94
2022-10-29T09:54:02.522Z,59.63
2022-10-29T09:56:30.755Z,58.54
2022-10-29T09:58:59.361Z,57.83
2022-10-29T10:01:27.187Z,56.77
2022-10-29T10:03:55.222Z,56.21
2022-10-29T10:06:23.064Z,55.32
2022-10-29T10:08:50.881Z,55.50
2022-10-29T10:11:19.100Z,56.06
2022-10-29T10:13:47.251Z,55.46
2022-10-29T10:16:15.093Z,54.88
2022-10-29T10:21:15.822Z,54.04
2022-10-29T10:23:43.779Z,54.74
2022-10-29T10:26:11.541Z,54.92
2022-10-29T10:28:39.374Z,56.53
2022-10-29T10:31:07.278Z,56.70
2022-10-29T10:33:35.396Z,57.26
2022-10-29T10:36:04.277Z,57.92
2022-10-29T10:38:32.242Z,58.17
2022-10-29T10:41:00.124Z,57.92
2022-10-29T10:43:28.018Z,57.97
2022-10-29T10:45:56.050Z,57.57
2022-10-29T10:48:24.817Z,57.33
2022-10-29T10:50:53.609Z,57.98
2022-10-29T10:53:21.450Z,57.81
2022-10-29T10:55:49.300Z,58.25
2022-10-29T10:58:17.140Z,57.71
2022-10-29T11:00:45.081Z,58.15
2022-10-29T11:03:13.007Z,58.09
2022-10-29T11:05:40.862Z,58.27
2022-10-29T11:08:08.804Z,58.26
2022-10-29T11:10:36.821Z,58.36
2022-10-29T11:13:04.970Z,59.06
2022-10-29T11:15:32.723Z,58.81
2022-10-29T11:18:01.363Z,58.35
2022-10-29T11:20:29.366Z,58.55
2022-10-29T11:22:57.765Z,58.17
2022-10-29T11:25:27.228Z,58.42
2022-10-29T11:27:55.090Z,58.06
2022-10-29T11:30:23.053Z,57.84
2022-10-29T11:32:50.688Z,57.44
2022-10-29T11:35:18.742Z,57.27
2022-10-29T11:37:47.204Z,57.17
2022-10-29T11:40:18.868Z,57.19
2022-10-29T11:42:46.681Z,56.87
2022-10-29T11:45:14.449Z,56.37
2022-10-29T11:47:42.524Z,56.30
2022-10-29T11:50:10.611Z,56.84
2022-10-29T11:52:38.533Z,55.93
2022-10-29T11:55:06.261Z,55.66
2022-10-29T11:57:34.088Z,55.19
2022-10-29T12:00:02.104Z,55.69
2022-10-29T12:02:30.721Z,55.29
2022-10-29T12:04:58.566Z,54.71
2022-10-29T12:07:27.017Z,54.57
2022-10-29T12:09:54.767Z,54.86
2022-10-29T12:12:22.792Z,54.48
2022-10-29T12:14:51.112Z,54.38
2022-10-29T12:17:19.160Z,54.36
2022-10-29T12:19:47.117Z,54.46
2022-10-29T12:22:15.074Z,53.77
2022-10-29T12:24:44.369Z,53.79
2022-10-29T12:27:14.065Z,53.91
2022-10-29T12:29:46.998Z,53.72
2022-10-29T12:32:14.853Z,53.54
2022-10-29T12:34:42.515Z,53.96
2022-10-29T12:37:10.649Z,54.22
2022-10-29T12:39:38.449Z,54.14
2022-10-29T12:42:06.321Z,54.03
2022-10-29T12:44:34.282Z,53.70
2022-10-29T12:47:02.558Z,53.82
2022-10-29T12:49:30.869Z,53.93
2022-10-29T12:51:59.024Z,54.36
2022-10-29T12:54:26.796Z,54.91
2022-10-29T12:56:54.538Z,54.82
2022-10-29T12:59:22.495Z,54.22
2022-10-29T13:02:10.462Z,54.47
2022-10-29T13:04:38.821Z,54.77
2022-10-29T13:07:06.967Z,54.80
2022-10-29T13:09:36.220Z,54.54
2022-10-29T13:12:04.516Z,54.44
2022-10-29T13:14:32.403Z,55.18
2022-10-29T13:17:00.591Z,54.58
2022-10-29T13:19:29.612Z,54.44
2022-10-29T13:21:57.484Z,54.55
2022-10-29T13:24:25.755Z,54.30
2022-10-29T13:26:53.583Z,54.25
2022-10-29T13:29:21.725Z,54.19
2022-10-29T13:31:49.611Z,54.29
2022-10-29T13:34:17.501Z,53.83
2022-10-29T13:36:45.260Z,53.54
2022-10-29T13:39:13.317Z,53.48
2022-10-29T13:41:43.741Z,53.62
2022-10-29T13:44:11.949Z,53.58
2022-10-29T13:46:44.862Z,54.06
2022-10-29T13:49:13.314Z,53.87
2022-10-29T13:51:41.753Z,53.89
2022-10-29T13:54:10.232Z,54.71
2022-10-29T13:56:38.139Z,54.37
2022-10-29T13:59:06.165Z,54.40
2022-10-29T14:01:34.347Z,55.17
2022-10-29T14:04:02.288Z,55.11
2022-10-29T14:06:30.537Z,54.53
2022-10-29T14:08:58.514Z,54.20
2022-10-29T14:11:26.493Z,54.95
2022-10-29T14:13:55.763Z,54.22
2022-10-29T14:16:23.659Z,53.11
2022-10-29T14:18:51.865Z,52.72
2022-10-29T14:21:19.654Z,53.37
2022-10-29T14:23:47.371Z,52.76
2022-10-29T14:26:15.650Z,53.11
2022-10-29T14:28:43.617Z,52.75
2022-10-29T14:31:11.966Z,53.61
2022-10-29T14:33:39.854Z,53.74
2022-10-29T14:36:08.078Z,53.95
2022-10-29T14:38:36.040Z,54.65
2022-10-29T14:41:03.984Z,55.06
2022-10-29T14:43:32.142Z,55.30
2022-10-29T14:46:00.025Z,55.56
2022-10-29T14:48:28.065Z,55.86
2022-10-29T14:50:58.053Z,56.40
2022-10-29T14:53:25.791Z,56.52
2022-10-29T14:55:54.219Z,57.11
2022-10-29T14:58:22.079Z,57.02
2022-10-29T15:00:50.092Z,56.98
2022-10-29T15:03:18.558Z,57.30
2022-10-29T15:05:46.445Z,57.46
2022-10-29T15:08:14.912Z,58.28
2022-10-29T15:10:42.920Z,58.29
2022-10-29T15:13:10.938Z,58.25
2022-10-29T15:15:39.123Z,58.58
2022-10-29T15:18:07.561Z,59.39
2022-10-29T15:20:35.975Z,59.04
2022-10-29T15:23:03.810Z,60.22
2022-10-29T15:25:31.828Z,60.43
2022-10-29T15:28:00.379Z,60.11
2022-10-29T15:30:28.946Z,60.90
2022-10-29T15:32:57.227Z,60.46
2022-10-29T15:35:25.378Z,60.98
2022-10-29T15:37:53.580Z,61.68
2022-10-29T15:40:23.335Z,61.19
2022-10-29T15:42:51.147Z,61.44
2022-10-29T15:45:19.427Z,61.50
2022-10-29T15:47:48.646Z,62.02
2022-10-29T15:50:16.529Z,61.76
2022-10-29T15:52:44.618Z,61.72
2022-10-29T15:55:12.600Z,62.25
2022-10-29T15:57:40.786Z,62.00
2022-10-29T16:00:08.609Z,62.26
2022-10-29T16:02:36.868Z,62.97
2022-10-29T16:05:05.258Z,62.72
2022-10-29T16:07:32.972Z,62.76
2022-10-29T16:10:01.128Z,63.58
2022-10-29T16:12:28.946Z,63.32
2022-10-29T16:14:56.806Z,63.47
2022-10-29T16:17:25.133Z,63.45
2022-10-29T16:19:53.124Z,63.87
2022-10-29T16:22:21.226Z,64.01
2022-10-29T16:24:49.573Z,63.92
2022-10-29T16:27:17.413Z,63.63
2022-10-29T16:29:47.218Z,63.31
2022-10-29T16:32:15.291Z,63.29
2022-10-29T16:34:43.410Z,63.02
2022-10-29T16:37:11.279Z,62.85
2022-10-29T16:39:39.071Z,62.38
2022-10-29T16:42:07.290Z,62.60
2022-10-29T16:44:35.107Z,62.44
2022-10-29T16:47:03.879Z,62.03
2022-10-29T16:49:31.763Z,62.30
2022-10-29T16:51:59.493Z,62.22
2022-10-29T16:54:27.600Z,62.22
2022-10-29T16:56:55.393Z,62.36
2022-10-29T16:59:23.620Z,62.39
2022-10-29T17:01:51.524Z,62.15
2022-10-29T17:04:19.553Z,62.74
2022-10-29T17:06:47.662Z,62.71
2022-10-29T17:09:16.000Z,62.29
2022-10-29T17:11:43.883Z,62.68
2022-10-29T17:14:11.674Z,62.81
2022-10-29T17:16:39.658Z,62.48
2022-10-29T17:19:07.772Z,62.45
2022-10-29T17:21:35.666Z,62.38
2022-10-29T17:24:07.681Z,62.33
2022-10-29T17:26:36.025Z,62.27
2022-10-29T17:29:03.957Z,62.80
2022-10-29T17:31:35.433Z,62.72
2022-10-29T17:34:03.248Z,62.76
2022-10-29T17:36:31.674Z,62.48
2022-10-29T17:38:59.587Z,62.47
2022-10-29T17:41:27.464Z,62.41
2022-10-29T17:43:55.652Z,62.41
2022-10-29T17:46:23.404Z,63.09
2022-10-29T17:48:51.609Z,63.30
2022-10-29T17:51:19.444Z,63.80
2022-10-29T17:53:47.742Z,63.75
2022-10-29T17:56:16.151Z,63.71
2022-10-29T17:58:43.995Z,63.88
2022-10-29T18:01:12.530Z,64.01
2022-10-29T18:03:40.487Z,64.31
2022-10-29T18:06:08.250Z,64.48
2022-10-29T18:08:36.595Z,64.17
2022-10-29T18:11:04.578Z,64.10
2022-10-29T18:13:32.818Z,64.71
2022-10-29T18:16:01.223Z,64.42
2022-10-29T18:18:34.683Z,64.20
2022-10-29T18:21:10.847Z,64.14
2022-10-29T18:23:39.062Z,63.73
2022-10-29T18:26:06.913Z,64.12
2022-10-29T18:28:36.222Z,63.99
2022-10-29T18:31:04.121Z,64.17
2022-10-29T18:33:32.369Z,64.41
2022-10-29T18:36:00.617Z,64.17
2022-10-29T18:38:30.930Z,64.46
2022-10-29T18:40:58.827Z,64.58
2022-10-29T18:43:26.881Z,63.90
2022-10-29T18:45:54.839Z,64.14
2022-10-29T18:48:23.275Z,64.51
2022-10-29T18:50:51.218Z,63.99
2022-10-29T18:53:19.046Z,64.31
2022-10-29T18:55:47.006Z,64.05
2022-10-29T18:58:15.008Z,63.85
2022-10-29T19:00:43.204Z,63.32
2022-10-29T19:03:11.158Z,63.36
2022-10-29T19:05:39.117Z,63.35
2022-10-29T19:08:06.987Z,63.04
2022-10-29T19:10:35.112Z,63.00
2022-10-29T19:13:03.482Z,63.25
2022-10-29T19:15:31.291Z,63.43
2022-10-29T19:17:59.662Z,63.46
2022-10-29T19:20:27.825Z,63.88
2022-10-29T19:22:56.294Z,64.03
2022-10-29T19:25:24.700Z,64.37
2022-10-29T19:27:52.729Z,64.41
2022-10-29T19:30:20.540Z,64.59
2022-10-29T19:32:48.457Z,64.82
2022-10-29T19:35:16.506Z,64.58
2022-10-29T19:37:44.958Z,65.18
2022-10-29T19:40:13.179Z,64.88
2022-10-29T19:42:41.096Z,65.43
2022-10-29T19:45:08.902Z,65.19
2022-10-29T19:47:37.213Z,65.83
2022-10-29T19:50:06.103Z,64.88
2022-10-29T19:52:33.964Z,64.38
2022-10-29T19:55:01.804Z,63.66
2022-10-29T19:57:29.809Z,62.66
2022-10-29T19:59:57.698Z,62.35
2022-10-29T20:02:26.323Z,61.77
2022-10-29T20:04:54.237Z,61.18
2022-10-29T20:07:22.146Z,61.17
2022-10-29T20:09:50.045Z,61.09
2022-10-29T20:12:18.264Z,61.45
2022-10-29T20:14:46.412Z,60.87
2022-10-29T20:17:14.295Z,61.10
2022-10-29T20:19:42.147Z,60.79
2022-10-29T20:22:10.024Z,60.51
2022-10-29T20:24:39.423Z,61.01
2022-10-29T20:27:07.509Z,61.09
2022-10-29T20:29:35.243Z,61.51
2022-10-29T20:32:03.271Z,62.28
2022-10-29T20:34:31.285Z,62.21
2022-10-29T20:39:33.530Z,62.91
2022-10-29T20:42:01.565Z,62.79
2022-10-29T20:44:29.564Z,63.12
2022-10-29T20:46:57.937Z,63.16
2022-10-29T20:49:26.149Z,62.28
2022-10-29T20:51:54.309Z,62.85
2022-10-29T20:54:22.176Z,62.64
2022-10-29T20:56:50.022Z,62.63
2022-10-29T20:59:17.891Z,62.50
2022-10-29T21:01:46.305Z,62.55
2022-10-29T21:04:15.273Z,62.70
2022-10-29T21:06:43.152Z,62.23
2022-10-29T21:09:11.332Z,62.50
2022-10-29T21:11:39.049Z,61.55
2022-10-29T21:14:07.298Z,61.81
2022-10-29T21:16:35.520Z,61.35
2022-10-29T21:19:04.111Z,61.25
2022-10-29T21:21:32.055Z,61.57
2022-10-29T21:24:00.196Z,61.14
2022-10-29T21:26:28.206Z,60.85
2022-10-29T21:28:56.673Z,60.88
2022-10-29T21:31:24.628Z,60.29
2022-10-29T21:33:52.524Z,59.71
2022-10-29T21:36:20.519Z,59.69
2022-10-29T21:38:48.981Z,59.88
2022-10-29T21:41:17.447Z,59.95
2022-10-29T21:43:45.205Z,60.15
2022-10-29T21:46:13.197Z,60.30
2022-10-29T21:48:41.211Z,59.92
2022-10-29T21:51:09.093Z,59.82
2022-10-29T21:53:37.884Z,59.95
2022-10-29T21:56:05.762Z,60.35
2022-10-29T21:58:33.657Z,60.37
2022-10-29T22:01:01.551Z,60.00
2022-10-29T22:03:29.459Z,60.17
2022-10-29T22:05:57.800Z,60.09
2022-10-29T22:08:25.781Z,60.11
2022-10-29T22:10:53.564Z,60.18
2022-10-29T22:13:21.398Z,60.82
2022-10-29T22:15:51.064Z,60.44
2022-10-29T22:18:19.355Z,60.69
2022-10-29T22:20:47.163Z,60.53
2022-10-29T22:25:47.646Z,60.58
2022-10-29T22:28:15.634Z,60.71
2022-10-29T22:30:43.779Z,60.84
2022-10-29T22:33:11.476Z,60.76
2022-10-29T22:35:39.269Z,61.27
2022-10-29T22:38:07.592Z,61.38
2022-10-29T22:40:35.590Z,61.49
2022-10-29T22:43:03.775Z,61.19
2022-10-29T22:45:31.516Z,61.25
2022-10-29T22:47:59.293Z,60.59
2022-10-29T22:50:27.035Z,60.36
2022-10-29T22:52:55.117Z,60.79
2022-10-29T22:55:23.104Z,60.70
2022-10-29T22:57:50.810Z,60.97
2022-10-29T23:00:18.437Z,61.02
2022-10-29T23:02:46.201Z,60.92
2022-10-29T23:05:14.324Z,60.75
2022-10-29T23:07:42.333Z,60.72
2022-10-29T23:10:09.975Z,61.02
2022-10-29T23:12:38.428Z,61.32
2022-10-29T23:15:06.146Z,61.67
2022-10-29T23:17:34.076Z,61.51
2022-10-29T23:20:02.104Z,61.52
2022-10-29T23:22:30.265Z,61.33
2022-10-29T23:24:57.886Z,61.43
2022-10-29T23:27:25.627Z,61.61
2022-10-29T23:29:53.485Z,61.39
2022-10-29T23:32:21.494Z,61.45
2022-10-29T23:34:50.119Z,60.98
2022-10-29T23:37:17.767Z,61.74
2022-10-29T23:39:45.378Z,62.03
2022-10-29T23:42:13.279Z,61.50
2022-10-29T23:44:41.590Z,62.13
2022-10-29T23:47:09.161Z,62.48
2022-10-29T23:49:36.800Z,62.68
2022-10-29T23:52:04.437Z,62.41
2022-10-29T23:54:32.206Z,62.92
2022-10-29T23:57:00.172Z,62.78
2022-10-29T23:59:27.779Z,62.85
